createdAt,value
2023-02-18T00:01:37.437Z,19.08
2023-02-18T00:04:04.581Z,20.20
2023-02-18T00:06:35.044Z,21.42
2023-02-18T00:09:04.889Z,23.20
2023-02-18T00:11:35.893Z,24.02
2023-02-18T00:14:06.409Z,24.13
2023-02-18T00:16:33.605Z,25.13
2023-02-18T00:19:05.433Z,23.95
2023-02-18T00:21:34.875Z,24.40
2023-02-18T00:24:02.193Z,25.10
2023-02-18T00:26:29.227Z,25.23
2023-02-18T00:28:56.454Z,25.45
2023-02-18T00:31:26.435Z,25.17
2023-02-18T00:33:54.727Z,25.23
2023-02-18T00:36:23.347Z,25.65
2023-02-18T00:38:55.053Z,26.40
2023-02-18T00:41:24.961Z,25.20
2023-02-18T00:43:52.073Z,24.98
2023-02-18T00:46:21.229Z,25.33
2023-02-18T00:48:48.343Z,24.35
2023-02-18T00:51:15.473Z,24.05
2023-02-18T00:53:42.576Z,24.50
2023-02-18T00:56:10.937Z,25.02
2023-02-18T00:58:38.436Z,25.30
2023-02-18T01:01:08.646Z,26.40
2023-02-18T01:03:38.672Z,26.70
2023-02-18T01:06:07.330Z,26.50
2023-02-18T01:08:36.901Z,26.63
2023-02-18T01:11:05.447Z,26.63
2023-02-18T01:13:32.909Z,27.45
2023-02-18T01:15:59.948Z,26.55
2023-02-18T01:18:29.996Z,27.40
2023-02-18T01:20:57.579Z,26.90
2023-02-18T01:23:24.837Z,27.25
2023-02-18T01:25:53.039Z,27.27
2023-02-18T01:28:21.489Z,27.00
2023-02-18T01:30:49.919Z,27.15
2023-02-18T01:33:18.673Z,26.63
2023-02-18T01:35:45.809Z,26.67
2023-02-18T01:38:12.925Z,25.90
2023-02-18T01:40:52.728Z,27.35
2023-02-18T01:43:22.534Z,26.92
2023-02-18T01:46:13.710Z,27.10
2023-02-18T01:48:55.124Z,25.92
2023-02-18T01:51:28.648Z,26.85
2023-02-18T01:54:06.460Z,27.30
2023-02-18T01:57:01.431Z,25.17
2023-02-18T01:59:37.360Z,25.77
2023-02-18T02:02:08.218Z,25.50
2023-02-18T02:04:35.426Z,25.63
2023-02-18T02:07:03.557Z,25.30
2023-02-18T02:09:33.125Z,24.42
2023-02-18T02:12:40.440Z,21.88
2023-02-18T02:15:24.158Z,24.83
2023-02-18T02:18:17.058Z,22.77
2023-02-18T02:21:38.869Z,21.70
2023-02-18T02:24:39.952Z,19.73
2023-02-18T02:27:21.423Z,19.23
2023-02-18T02:30:07.122Z,20.38
2023-02-18T02:32:51.237Z,19.20
2023-02-18T02:35:39.171Z,18.98
2023-02-18T02:38:40.124Z,18.35
2023-02-18T02:41:19.595Z,17.00
2023-02-18T02:44:11.247Z,16.20
2023-02-18T02:46:45.354Z,15.93
2023-02-18T02:52:13.422Z,16.60
2023-02-18T02:54:40.619Z,15.75
2023-02-18T02:57:13.855Z,15.77
2023-02-18T03:00:01.326Z,15.43
2023-02-18T03:02:39.021Z,15.15
2023-02-18T03:05:23.896Z,15.18
2023-02-18T03:08:04.788Z,15.02
2023-02-18T03:10:44.621Z,14.80
2023-02-18T03:13:32.601Z,13.27
2023-02-18T03:16:17.582Z,13.55
2023-02-18T03:18:59.803Z,14.23
2023-02-18T03:21:42.158Z,14.93
2023-02-18T03:24:27.488Z,13.88
2023-02-18T03:27:04.385Z,13.90
2023-02-18T03:29:33.555Z,13.90
2023-02-18T03:32:06.874Z,13.52
2023-02-18T03:34:41.766Z,12.63
2023-02-18T03:37:12.224Z,12.80
2023-02-18T03:39:46.274Z,12.05
2023-02-18T03:42:14.070Z,11.55
2023-02-18T03:44:41.275Z,11.07
2023-02-18T03:47:08.572Z,10.43
2023-02-18T03:49:35.644Z,10.02
2023-02-18T03:52:02.773Z,9.70
2023-02-18T03:54:29.749Z,9.00
2023-02-18T03:56:56.817Z,8.98
2023-02-18T03:59:23.744Z,8.68
2023-02-18T04:01:50.775Z,8.52
2023-02-18T04:04:17.816Z,8.73
2023-02-18T04:06:44.845Z,7.53
2023-02-18T04:09:11.931Z,7.60
2023-02-18T04:11:41.114Z,6.68
2023-02-18T04:14:08.903Z,6.47
2023-02-18T04:16:36.152Z,6.22
2023-02-18T04:19:03.187Z,6.03
2023-02-18T04:21:30.429Z,6.47
2023-02-18T04:23:57.468Z,5.60
2023-02-18T04:26:24.453Z,5.03
2023-02-18T04:28:51.619Z,5.15
2023-02-18T04:31:18.725Z,5.28
2023-02-18T04:33:46.565Z,4.50
2023-02-18T04:36:13.584Z,4.15
2023-02-18T04:38:42.054Z,4.68
2023-02-18T04:41:09.081Z,4.10
2023-02-18T04:43:36.141Z,3.72
2023-02-18T04:46:03.305Z,3.78
2023-02-18T04:48:30.855Z,3.97
2023-02-18T04:50:57.810Z,3.42
2023-02-18T04:53:24.813Z,3.42
2023-02-18T04:55:53.308Z,2.85
2023-02-18T04:58:21.472Z,3.20
2023-02-18T05:00:48.665Z,2.92
2023-02-18T05:03:16.314Z,2.85
2023-02-18T05:05:43.440Z,2.88
2023-02-18T05:08:10.409Z,2.28
2023-02-18T05:10:39.024Z,2.30
2023-02-18T05:13:06.135Z,2.17
2023-02-18T05:15:33.286Z,2.20
2023-02-18T05:18:00.376Z,2.03
2023-02-18T05:20:28.068Z,2.00
2023-02-18T05:22:55.082Z,1.95
2023-02-18T05:25:22.193Z,1.90
2023-02-18T05:27:49.237Z,1.90
2023-02-18T05:30:16.342Z,2.00
2023-02-18T05:32:43.365Z,2.03
2023-02-18T05:35:10.622Z,2.05
2023-02-18T05:37:37.674Z,2.20
2023-02-18T05:40:06.185Z,1.90
2023-02-18T05:42:33.215Z,2.08
2023-02-18T05:45:00.763Z,1.85
2023-02-18T05:47:27.860Z,1.88
2023-02-18T05:49:56.037Z,1.83
2023-02-18T05:52:23.221Z,1.90
2023-02-18T05:54:50.285Z,2.03
2023-02-18T05:57:17.424Z,1.80
2023-02-18T05:59:44.441Z,2.00
2023-02-18T06:02:11.374Z,2.00
2023-02-18T06:04:39.263Z,2.00
2023-02-18T06:07:06.572Z,2.15
2023-02-18T06:09:33.622Z,1.77
2023-02-18T06:12:00.713Z,1.67
2023-02-18T06:14:27.977Z,1.95
2023-02-18T06:16:54.967Z,1.90
2023-02-18T06:19:21.990Z,2.03
2023-02-18T06:21:48.973Z,2.10
2023-02-18T06:24:15.994Z,2.25
2023-02-18T06:26:43.011Z,2.05
2023-02-18T06:29:09.979Z,2.10
2023-02-18T06:31:37.024Z,2.42
2023-02-18T06:34:04.105Z,2.47
2023-02-18T06:36:31.158Z,2.65
2023-02-18T06:38:59.259Z,2.58
2023-02-18T06:41:26.272Z,2.65
2023-02-18T06:43:53.311Z,2.38
2023-02-18T06:46:20.567Z,2.47
2023-02-18T06:48:48.243Z,2.70
2023-02-18T06:51:16.194Z,2.90
2023-02-18T06:53:45.594Z,3.10
2023-02-18T06:56:12.716Z,3.30
2023-02-18T06:58:39.678Z,3.20
2023-02-18T07:01:06.965Z,2.92
2023-02-18T07:03:34.646Z,3.40
2023-02-18T07:06:01.581Z,3.60
2023-02-18T07:08:30.813Z,3.30
2023-02-18T07:10:57.810Z,3.63
2023-02-18T07:13:24.822Z,4.28
2023-02-18T07:15:51.816Z,4.28
2023-02-18T07:18:18.832Z,4.72
2023-02-18T07:20:46.645Z,4.90
2023-02-18T07:23:13.571Z,5.50
2023-02-18T07:25:41.041Z,5.28
2023-02-18T07:28:08.028Z,6.20
2023-02-18T07:30:35.067Z,6.45
2023-02-18T07:33:03.994Z,6.68
2023-02-18T07:35:31.341Z,6.72
2023-02-18T07:37:58.284Z,6.97
2023-02-18T07:40:25.267Z,6.85
2023-02-18T07:42:52.273Z,7.00
2023-02-18T07:45:19.491Z,7.00
2023-02-18T07:47:46.557Z,7.72
2023-02-18T07:50:13.600Z,7.00
2023-02-18T07:52:40.636Z,7.35
2023-02-18T07:55:08.575Z,6.47
2023-02-18T07:57:55.610Z,5.57
2023-02-18T08:00:23.009Z,6.93
2023-02-18T08:02:49.937Z,7.03
2023-02-18T08:05:16.934Z,7.25
2023-02-18T08:07:44.108Z,7.00
2023-02-18T08:10:12.961Z,7.00
2023-02-18T08:12:39.964Z,7.47
2023-02-18T08:15:07.520Z,6.88
2023-02-18T08:17:34.540Z,8.50
2023-02-18T08:20:01.606Z,8.82
2023-02-18T08:22:28.572Z,8.98
2023-02-18T08:24:56.406Z,9.52
2023-02-18T08:27:24.466Z,9.20
2023-02-18T08:29:52.267Z,9.93
2023-02-18T08:32:19.270Z,10.18
2023-02-18T08:34:46.287Z,10.43
2023-02-18T08:37:13.443Z,10.93
2023-02-18T08:39:40.468Z,11.18
2023-02-18T08:42:07.807Z,10.35
2023-02-18T08:44:34.814Z,9.43
2023-02-18T08:47:01.823Z,8.98
2023-02-18T08:49:28.880Z,8.50
2023-02-18T08:51:57.688Z,8.57
2023-02-18T08:54:24.726Z,7.72
2023-02-18T08:56:56.110Z,7.20
2023-02-18T08:59:26.885Z,7.32
2023-02-18T09:01:54.086Z,7.05
2023-02-18T09:04:21.505Z,6.65
2023-02-18T09:06:49.998Z,6.78
2023-02-18T09:09:18.002Z,6.32
2023-02-18T09:11:45.929Z,6.65
2023-02-18T09:14:13.250Z,6.55
2023-02-18T09:16:41.613Z,6.10
2023-02-18T09:19:09.597Z,6.20
2023-02-18T09:21:36.831Z,7.00
2023-02-18T09:24:04.066Z,6.53
2023-02-18T09:26:34.276Z,7.47
2023-02-18T09:29:01.653Z,7.80
2023-02-18T09:31:29.807Z,6.60
2023-02-18T09:34:01.708Z,6.88
2023-02-18T09:36:29.865Z,7.45
2023-02-18T09:38:58.780Z,6.93
2023-02-18T09:41:42.707Z,6.57
2023-02-18T09:44:31.077Z,6.88
2023-02-18T09:47:05.261Z,7.05
2023-02-18T09:49:39.869Z,7.05
2023-02-18T09:52:31.789Z,7.28
2023-02-18T09:55:00.621Z,6.05
2023-02-18T09:57:46.277Z,6.68
2023-02-18T10:00:23.309Z,6.35
2023-02-18T10:02:59.013Z,6.78
2023-02-18T10:05:31.251Z,6.00
2023-02-18T10:08:24.578Z,9.23
2023-02-18T10:10:51.682Z,7.38
2023-02-18T10:13:25.039Z,5.85
2023-02-18T10:15:52.675Z,6.50
2023-02-18T10:18:33.787Z,5.20
2023-02-18T10:21:18.429Z,5.38
2023-02-18T10:24:05.301Z,5.35
2023-02-18T10:26:37.232Z,6.05
2023-02-18T10:29:10.127Z,4.55
2023-02-18T10:31:44.705Z,4.53
2023-02-18T10:34:30.716Z,4.18
2023-02-18T10:37:46.704Z,3.35
2023-02-18T10:41:01.643Z,3.55
2023-02-18T10:43:45.521Z,3.47
2023-02-18T10:46:28.998Z,4.17
2023-02-18T10:49:13.422Z,3.78
2023-02-18T10:51:50.263Z,3.42
2023-02-18T10:54:17.575Z,3.10
2023-02-18T10:56:51.428Z,3.83
2023-02-18T10:59:32.260Z,3.47
2023-02-18T11:02:05.668Z,3.35
2023-02-18T11:04:42.712Z,3.10
2023-02-18T11:07:19.209Z,3.03
2023-02-18T11:10:00.413Z,4.38
2023-02-18T11:12:46.189Z,3.45
2023-02-18T11:15:27.088Z,4.28
2023-02-18T11:17:59.414Z,7.22
2023-02-18T11:20:37.791Z,7.13
2023-02-18T11:23:07.778Z,4.18
2023-02-18T11:25:41.076Z,4.18
2023-02-18T11:28:45.146Z,4.28
2023-02-18T11:31:23.332Z,3.83
2023-02-18T11:33:56.690Z,3.78
2023-02-18T11:36:36.235Z,4.80
2023-02-18T11:39:19.849Z,3.90
2023-02-18T11:42:05.439Z,4.47
2023-02-18T11:44:56.122Z,3.88
2023-02-18T11:47:36.656Z,4.43
2023-02-18T11:50:09.583Z,4.55
2023-02-18T11:52:51.530Z,4.07
2023-02-18T11:55:31.017Z,4.90
2023-02-18T11:58:02.595Z,6.43
2023-02-18T12:00:43.802Z,8.38
2023-02-18T12:03:56.834Z,4.72
2023-02-18T12:06:33.432Z,6.47
2023-02-18T12:09:14.191Z,5.18
2023-02-18T12:11:47.967Z,4.85
2023-02-18T12:14:20.763Z,5.35
2023-02-18T12:17:56.148Z,4.85
2023-02-18T12:21:06.076Z,4.43
2023-02-18T12:24:01.819Z,5.13
2023-02-18T12:26:54.633Z,4.40
2023-02-18T12:29:56.741Z,7.53
2023-02-18T12:33:22.831Z,3.90
2023-02-18T12:38:59.573Z,5.40
2023-02-18T12:41:59.393Z,4.57
2023-02-18T12:44:36.677Z,4.57
2023-02-18T12:47:38.873Z,5.18
2023-02-18T12:50:30.838Z,4.97
2023-02-18T12:53:42.190Z,4.50
2023-02-18T12:56:43.942Z,5.10
2023-02-18T12:59:35.529Z,4.35
2023-02-18T13:02:39.617Z,4.10
2023-02-18T13:05:28.188Z,3.97
2023-02-18T13:08:07.456Z,7.93
2023-02-18T13:11:13.306Z,3.20
2023-02-18T13:14:00.748Z,4.05
2023-02-18T13:16:31.200Z,2.83
2023-02-18T13:19:44.079Z,3.10
2023-02-18T13:22:15.596Z,2.42
2023-02-18T13:24:47.675Z,2.22
2023-02-18T13:27:41.935Z,2.10
2023-02-18T13:30:38.397Z,2.30
2023-02-18T13:33:34.339Z,2.03
2023-02-18T13:36:16.736Z,2.30
2023-02-18T13:39:03.766Z,1.95
2023-02-18T13:41:38.154Z,2.30
2023-02-18T13:44:28.090Z,2.25
2023-02-18T13:46:58.402Z,1.92
2023-02-18T13:49:33.689Z,2.30
2023-02-18T13:52:04.665Z,1.80
2023-02-18T13:54:42.446Z,2.15
2023-02-18T13:57:21.676Z,4.25
2023-02-18T14:00:00.931Z,3.85
2023-02-18T14:02:36.848Z,2.65
2023-02-18T14:05:20.573Z,2.30
2023-02-18T14:08:11.040Z,2.10
2023-02-18T14:10:39.163Z,2.25
2023-02-18T14:13:22.717Z,1.42
2023-02-18T14:16:01.372Z,1.85
2023-02-18T14:18:55.216Z,2.40
2023-02-18T14:21:41.452Z,1.80
2023-02-18T14:24:11.957Z,1.77
2023-02-18T14:26:49.153Z,1.75
2023-02-18T14:29:30.365Z,1.83
2023-02-18T14:32:05.002Z,1.90
2023-02-18T14:35:06.432Z,1.92
2023-02-18T14:38:06.900Z,1.48
2023-02-18T14:41:04.614Z,1.70
2023-02-18T14:43:53.203Z,2.95
2023-02-18T14:46:35.686Z,1.90
2023-02-18T14:49:44.759Z,2.33
2023-02-18T14:52:30.512Z,1.88
2023-02-18T14:55:01.509Z,1.63
2023-02-18T14:57:44.579Z,1.95
2023-02-18T15:00:22.946Z,1.90
2023-02-18T15:02:55.080Z,1.88
2023-02-18T15:05:37.490Z,1.50
2023-02-18T15:08:26.029Z,1.80
2023-02-18T15:11:06.158Z,1.60
2023-02-18T15:13:44.253Z,1.90
2023-02-18T15:16:25.177Z,1.77
2023-02-18T15:19:03.403Z,1.40
2023-02-18T15:21:40.189Z,1.67
2023-02-18T15:24:18.830Z,1.50
2023-02-18T15:26:52.120Z,1.70
2023-02-18T15:29:24.846Z,2.03
2023-02-18T15:31:52.659Z,1.50
2023-02-18T15:34:35.577Z,5.10
2023-02-18T15:37:07.261Z,1.83
2023-02-18T15:39:38.658Z,1.83
2023-02-18T15:42:33.141Z,1.30
2023-02-18T15:45:30.459Z,1.42
2023-02-18T15:47:59.598Z,1.70
2023-02-18T15:50:30.404Z,1.58
2023-02-18T15:53:06.298Z,1.55
2023-02-18T15:55:38.845Z,2.05
2023-02-18T15:58:23.906Z,1.90
2023-02-18T16:00:57.313Z,1.92
2023-02-18T16:03:28.635Z,1.65
2023-02-18T16:06:23.637Z,1.80
2023-02-18T16:09:12.449Z,1.05
2023-02-18T16:11:45.984Z,1.52
2023-02-18T16:14:34.887Z,1.70
2023-02-18T16:17:16.574Z,1.58
2023-02-18T16:20:04.472Z,1.77
2023-02-18T16:22:33.137Z,1.45
2023-02-18T16:25:15.155Z,2.10
2023-02-18T16:27:59.144Z,1.77
2023-02-18T16:30:30.439Z,1.77
2023-02-18T16:32:58.577Z,1.60
2023-02-18T16:35:32.706Z,1.63
2023-02-18T16:38:06.926Z,1.98
2023-02-18T16:40:36.999Z,2.03
2023-02-18T16:43:32.586Z,1.83
2023-02-18T16:46:14.524Z,1.90
2023-02-18T16:48:45.414Z,1.90
2023-02-18T16:51:20.852Z,2.00
2023-02-18T16:53:48.263Z,1.80
2023-02-18T16:56:21.321Z,1.90
2023-02-18T16:58:48.336Z,1.73
2023-02-18T17:01:30.841Z,1.92
2023-02-18T17:04:01.557Z,1.70
2023-02-18T17:06:29.826Z,2.05
2023-02-18T17:08:56.784Z,2.00
2023-02-18T17:11:30.092Z,1.75
2023-02-18T17:13:59.481Z,1.95
2023-02-18T17:16:27.870Z,1.60
2023-02-18T17:18:54.911Z,1.63
2023-02-18T17:21:25.358Z,2.05
2023-02-18T17:23:52.925Z,2.25
2023-02-18T17:26:27.211Z,2.03
2023-02-18T17:31:37.867Z,2.00
2023-02-18T17:34:08.905Z,2.13
2023-02-18T17:36:35.988Z,1.80
2023-02-18T17:39:06.287Z,1.80
2023-02-18T17:41:33.418Z,2.42
2023-02-18T17:44:00.343Z,2.60
2023-02-18T17:46:27.315Z,4.55
2023-02-18T17:48:54.234Z,6.55
2023-02-18T17:51:26.214Z,6.70
2023-02-18T17:53:53.623Z,8.18
2023-02-18T17:56:21.099Z,9.65
2023-02-18T17:58:48.749Z,11.32
2023-02-18T18:01:18.456Z,13.43
2023-02-18T18:03:45.501Z,13.38
2023-02-18T18:06:18.877Z,14.48
2023-02-18T18:08:47.542Z,19.55
2023-02-18T18:11:20.737Z,15.80
2023-02-18T18:13:48.433Z,16.55
2023-02-18T18:16:17.858Z,16.75
2023-02-18T18:18:45.332Z,20.42
2023-02-18T18:21:33.695Z,17.08
2023-02-18T18:24:01.427Z,20.55
2023-02-18T18:26:29.181Z,18.98
2023-02-18T18:28:56.121Z,20.08
2023-02-18T18:31:23.107Z,19.30
2023-02-18T18:33:53.198Z,18.42
2023-02-18T18:36:24.103Z,18.50
2023-02-18T18:38:52.305Z,18.38
2023-02-18T18:41:22.672Z,20.35
2023-02-18T18:43:49.925Z,20.90
2023-02-18T18:46:17.724Z,22.13
2023-02-18T18:48:44.815Z,22.60
2023-02-18T18:51:30.001Z,23.05
2023-02-18T18:53:57.136Z,22.70
2023-02-18T18:56:24.119Z,22.92
2023-02-18T18:58:51.284Z,21.73
2023-02-18T19:01:27.220Z,20.55
2023-02-18T19:03:54.417Z,21.23
2023-02-18T19:06:22.001Z,19.75
2023-02-18T19:08:49.050Z,19.45
2023-02-18T19:11:17.380Z,19.95
2023-02-18T19:13:45.950Z,19.13
2023-02-18T19:16:26.539Z,19.23
2023-02-18T19:18:54.310Z,17.98
2023-02-18T19:21:21.393Z,17.95
2023-02-18T19:23:48.391Z,18.95
2023-02-18T19:26:18.989Z,18.60
2023-02-18T19:28:46.320Z,17.33
2023-02-18T19:31:14.023Z,21.70
2023-02-18T19:33:41.715Z,19.77
2023-02-18T19:36:11.523Z,16.05
2023-02-18T19:38:39.492Z,17.88
2023-02-18T19:41:16.872Z,27.25
2023-02-18T19:43:46.500Z,16.77
2023-02-18T19:46:17.700Z,18.55
2023-02-18T19:48:50.401Z,17.02
2023-02-18T19:51:17.749Z,17.73
2023-02-18T19:53:46.006Z,16.05
2023-02-18T19:56:13.072Z,17.48
2023-02-18T19:58:40.200Z,22.83
2023-02-18T20:01:15.202Z,15.95
2023-02-18T20:03:43.653Z,15.95
2023-02-18T20:06:20.162Z,16.38
2023-02-18T20:08:47.445Z,16.50
2023-02-18T20:11:14.447Z,18.95
2023-02-18T20:13:42.104Z,21.30
2023-02-18T20:16:12.431Z,17.10
2023-02-18T20:18:39.408Z,18.23
2023-02-18T20:21:06.489Z,15.48
2023-02-18T20:23:33.696Z,16.20
2023-02-18T20:26:06.365Z,16.88
2023-02-18T20:28:33.350Z,15.73
2023-02-18T20:31:15.103Z,17.17
2023-02-18T20:33:42.754Z,16.90
2023-02-18T20:36:13.394Z,16.13
2023-02-18T20:38:40.375Z,16.77
2023-02-18T20:41:14.694Z,16.25
2023-02-18T20:46:13.594Z,17.27
2023-02-18T20:48:40.780Z,17.90
2023-02-18T20:51:14.348Z,18.52
2023-02-18T20:53:43.485Z,18.90
2023-02-18T20:56:10.770Z,18.80
2023-02-18T20:58:38.552Z,19.05
2023-02-18T21:01:20.062Z,19.63
2023-02-18T21:03:47.757Z,19.67
2023-02-18T21:06:19.350Z,19.05
2023-02-18T21:08:49.373Z,18.83
2023-02-18T21:11:20.880Z,19.77
2023-02-18T21:13:50.751Z,19.80
2023-02-18T21:16:20.114Z,19.13
2023-02-18T21:18:47.411Z,19.23
2023-02-18T21:21:14.997Z,19.08
2023-02-18T21:23:42.011Z,19.85
2023-02-18T21:26:13.460Z,19.05
2023-02-18T21:28:41.190Z,19.25
2023-02-18T21:31:26.175Z,19.50
2023-02-18T21:33:53.575Z,19.52
2023-02-18T21:36:21.007Z,26.70
2023-02-18T21:38:53.259Z,21.33
2023-02-18T21:41:20.805Z,28.17
2023-02-18T21:43:48.713Z,29.02
2023-02-18T21:46:28.942Z,24.75
2023-02-18T21:49:03.301Z,29.48
2023-02-18T21:54:44.342Z,23.17
2023-02-18T21:57:15.195Z,23.65
2023-02-18T21:59:42.720Z,21.58
2023-02-18T22:02:17.211Z,21.23
2023-02-18T22:04:45.579Z,21.58
2023-02-18T22:07:12.709Z,20.75
2023-02-18T22:09:40.068Z,21.17
2023-02-18T22:12:08.263Z,21.95
2023-02-18T22:14:35.278Z,21.17
2023-02-18T22:17:02.350Z,20.33
2023-02-18T22:19:29.342Z,20.60
2023-02-18T22:21:56.719Z,20.33
2023-02-18T22:24:24.362Z,20.60
2023-02-18T22:26:51.315Z,20.50
2023-02-18T22:29:20.493Z,21.75
2023-02-18T22:31:49.491Z,19.48
2023-02-18T22:34:17.312Z,19.73
2023-02-18T22:36:44.356Z,21.15
2023-02-18T22:39:13.292Z,21.45
2023-02-18T22:41:40.273Z,21.70
2023-02-18T22:44:12.650Z,20.85
2023-02-18T22:46:40.157Z,20.73
2023-02-18T22:49:08.513Z,20.98
2023-02-18T22:51:39.899Z,22.25
2023-02-18T22:54:16.230Z,21.17
2023-02-18T22:56:45.898Z,21.88
2023-02-18T22:59:17.086Z,20.88
2023-02-18T23:01:49.538Z,20.65
2023-02-18T23:04:19.116Z,20.77
2023-02-18T23:06:47.224Z,19.67
2023-02-18T23:09:19.979Z,20.40
2023-02-18T23:11:54.520Z,21.05
2023-02-18T23:14:22.059Z,20.02
2023-02-18T23:17:10.621Z,20.23
2023-02-18T23:19:39.833Z,20.98
2023-02-18T23:22:08.430Z,19.88
2023-02-18T23:24:39.518Z,19.77
2023-02-18T23:27:10.173Z,19.20
2023-02-18T23:29:38.195Z,19.05
2023-02-18T23:32:06.612Z,19.42
2023-02-18T23:34:34.860Z,19.90
2023-02-18T23:37:01.957Z,18.67
2023-02-18T23:39:29.580Z,19.85
2023-02-18T23:41:56.845Z,20.17
2023-02-18T23:44:26.386Z,18.90
2023-02-18T23:46:53.745Z,19.13
2023-02-18T23:49:24.878Z,17.88
2023-02-18T23:51:55.280Z,17.80
2023-02-18T23:54:23.840Z,17.15
2023-02-18T23:56:50.990Z,18.75
2023-02-18T23:59:18.527Z,18.60
